Galloway, Wisconsin
Current Conditions -  °F | °C
As of 6:15 PM on Monday 20 Oct 2014 (Local Time) from KSTE Reporting Station
Overcast Overcast  
Wind Chill: 46°   Ceiling: 4200
Heat Index: 48°   Visibility: 10mi
Dew Point: 39°   Wind: 6mph
Humidity: 70%   Direction: 320°NW
Pressure: 30"   Gusts: NA
Location:  44.71°N, 89.26°W
Report Text: KSTE 202315Z AUTO 32005KT 10SM OVC042 09/04 A3000 RMK AO2 T00900037
Loading
Personal Weather Stations






























Interactive Weather Map
Tropical Storm Tracking
New forecast layout! Learn more

10-Day Weather Forecast

Advertisements
Track Severe Weather on mobile